LEZG/ZAZ METAR and TAF weather

Enter ICAO airport designator
Station Type Date Time Source
LEZG METAR 2019/02/20 18:00 UTC NOAA

LEZG 201800Z 10002KT CAVOK 12/03 Q1024


Station Type Date Time Source
LEZG Decoded METAR 2019/02/20 18:00 UTC NOAA

Zaragoza / Aeropuerto, Spain (LEZG) 41-40N 001-01W 258M
Feb 20, 2019 - 01:00 PM EST / 2019.02.20 1800 UTC
Wind: from the E (100 degrees) at 2 MPH (2 KT):0
Visibility: greater than 7 mile(s):0
Temperature: 53 F (12 C)
Dew Point: 37 F (3 C)
Relative Humidity: 54%
Pressure (altimeter): 30.24 in. Hg (1024 hPa)
ob: LEZG 201800Z 10002KT CAVOK 12/03 Q1024
cycle: 18

Station Type Date Time Source
LEZG TAF 2019/02/20 18:27 UTC NOAA

TAF LEZG 201700Z 2018/2118 13006KT 9999 FEW020 TX19/2115Z TN03/2106Z PROB30
TEMPO 2102/2108 2000 BR BKN008


Example: see airport list